sensor_id;sensor_type;location;lat;lon;timestamp;P1;durP1;ratioP1;P2;durP2;ratioP2
10831;SDS011;5469;48.574;8.768;2023-04-30T00:00:51;4.33;;;1.93;;
10831;SDS011;5469;48.574;8.768;2023-04-30T00:03:25;2.90;;;1.87;;
10831;SDS011;5469;48.574;8.768;2023-04-30T00:05:58;2.73;;;1.50;;
10831;SDS011;5469;48.574;8.768;2023-04-30T00:08:32;2.10;;;1.10;;
10831;SDS011;5469;48.574;8.768;2023-04-30T00:11:05;2.37;;;1.50;;
10831;SDS011;5469;48.574;8.768;2023-04-30T00:13:39;1.57;;;1.23;;
10831;SDS011;5469;48.574;8.768;2023-04-30T00:16:15;3.30;;;2.13;;
10831;SDS011;5469;48.574;8.768;2023-04-30T00:18:48;2.70;;;1.43;;
10831;SDS011;5469;48.574;8.768;2023-04-30T00:21:21;1.63;;;1.47;;
10831;SDS011;5469;48.574;8.768;2023-04-30T00:23:55;1.80;;;1.20;;
10831;SDS011;5469;48.574;8.768;2023-04-30T00:26:31;2.33;;;1.70;;
10831;SDS011;5469;48.574;8.768;2023-04-30T00:29:04;1.87;;;1.40;;
10831;SDS011;5469;48.574;8.768;2023-04-30T00:31:40;2.53;;;1.30;;
10831;SDS011;5469;48.574;8.768;2023-04-30T00:34:13;1.20;;;1.00;;
10831;SDS011;5469;48.574;8.768;2023-04-30T00:36:47;2.33;;;1.60;;
10831;SDS011;5469;48.574;8.768;2023-04-30T00:39:20;1.53;;;1.43;;
10831;SDS011;5469;48.574;8.768;2023-04-30T00:41:54;2.50;;;1.30;;
10831;SDS011;5469;48.574;8.768;2023-04-30T00:44:27;4.93;;;1.93;;
10831;SDS011;5469;48.574;8.768;2023-04-30T00:47:02;1.73;;;1.50;;
10831;SDS011;5469;48.574;8.768;2023-04-30T00:49:36;1.00;;;0.93;;
10831;SDS011;5469;48.574;8.768;2023-04-30T00:52:09;3.10;;;1.53;;
10831;SDS011;5469;48.574;8.768;2023-04-30T00:54:43;1.63;;;1.53;;
10831;SDS011;5469;48.574;8.768;2023-04-30T00:57:17;1.70;;;1.23;;
10831;SDS011;5469;48.574;8.768;2023-04-30T00:59:52;2.53;;;2.13;;
10831;SDS011;5469;48.574;8.768;2023-04-30T01:02:27;1.50;;;1.20;;
10831;SDS011;5469;48.574;8.768;2023-04-30T01:05:02;1.97;;;1.57;;
10831;SDS011;5469;48.574;8.768;2023-04-30T01:07:36;2.33;;;1.47;;
10831;SDS011;5469;48.574;8.768;2023-04-30T01:10:15;1.50;;;1.23;;
10831;SDS011;5469;48.574;8.768;2023-04-30T01:12:52;2.53;;;1.50;;
10831;SDS011;5469;48.574;8.768;2023-04-30T01:15:32;1.63;;;1.53;;
10831;SDS011;5469;48.574;8.768;2023-04-30T01:18:12;2.30;;;1.60;;
10831;SDS011;5469;48.574;8.768;2023-04-30T01:20:54;1.40;;;1.30;;
10831;SDS011;5469;48.574;8.768;2023-04-30T01:23:39;1.37;;;1.27;;
10831;SDS011;5469;48.574;8.768;2023-04-30T01:26:28;2.37;;;1.73;;
10831;SDS011;5469;48.574;8.768;2023-04-30T01:29:18;2.03;;;1.53;;
10831;SDS011;5469;48.574;8.768;2023-04-30T01:31:54;2.17;;;1.40;;
10831;SDS011;5469;48.574;8.768;2023-04-30T01:34:27;1.67;;;1.33;;
10831;SDS011;5469;48.574;8.768;2023-04-30T01:37:06;1.53;;;1.43;;
10831;SDS011;5469;48.574;8.768;2023-04-30T01:39:50;2.03;;;1.43;;
10831;SDS011;5469;48.574;8.768;2023-04-30T01:42:32;1.80;;;1.37;;
10831;SDS011;5469;48.574;8.768;2023-04-30T01:45:30;1.80;;;1.40;;
10831;SDS011;5469;48.574;8.768;2023-04-30T01:48:16;2.73;;;1.70;;
10831;SDS011;5469;48.574;8.768;2023-04-30T01:50:57;2.43;;;1.77;;
10831;SDS011;5469;48.574;8.768;2023-04-30T01:53:40;2.47;;;1.40;;
10831;SDS011;5469;48.574;8.768;2023-04-30T01:56:17;1.87;;;1.63;;
10831;SDS011;5469;48.574;8.768;2023-04-30T01:58:57;2.13;;;1.87;;
10831;SDS011;5469;48.574;8.768;2023-04-30T02:01:33;1.93;;;1.73;;
10831;SDS011;5469;48.574;8.768;2023-04-30T02:04:06;2.83;;;1.60;;
10831;SDS011;5469;48.574;8.768;2023-04-30T02:06:40;1.60;;;1.50;;
10831;SDS011;5469;48.574;8.768;2023-04-30T02:09:13;2.43;;;1.37;;
10831;SDS011;5469;48.574;8.768;2023-04-30T02:11:47;2.00;;;1.80;;
10831;SDS011;5469;48.574;8.768;2023-04-30T02:14:20;1.50;;;1.40;;
10831;SDS011;5469;48.574;8.768;2023-04-30T02:16:55;2.17;;;1.63;;
10831;SDS011;5469;48.574;8.768;2023-04-30T02:19:28;3.00;;;1.80;;
10831;SDS011;5469;48.574;8.768;2023-04-30T02:22:02;1.40;;;1.30;;
10831;SDS011;5469;48.574;8.768;2023-04-30T02:24:35;1.80;;;1.27;;
10831;SDS011;5469;48.574;8.768;2023-04-30T02:27:09;2.10;;;1.20;;
10831;SDS011;5469;48.574;8.768;2023-04-30T02:29:42;1.70;;;1.37;;
10831;SDS011;5469;48.574;8.768;2023-04-30T02:32:17;3.60;;;1.37;;
10831;SDS011;5469;48.574;8.768;2023-04-30T02:34:50;2.63;;;2.00;;
10831;SDS011;5469;48.574;8.768;2023-04-30T02:37:24;1.83;;;1.13;;
10831;SDS011;5469;48.574;8.768;2023-04-30T02:39:57;1.83;;;1.60;;
10831;SDS011;5469;48.574;8.768;2023-04-30T02:42:31;2.37;;;1.23;;
10831;SDS011;5469;48.574;8.768;2023-04-30T02:45:06;2.87;;;1.53;;
10831;SDS011;5469;48.574;8.768;2023-04-30T02:47:41;1.60;;;1.50;;
10831;SDS011;5469;48.574;8.768;2023-04-30T02:50:14;1.40;;;1.27;;
10831;SDS011;5469;48.574;8.768;2023-04-30T02:52:48;1.90;;;1.40;;
10831;SDS011;5469;48.574;8.768;2023-04-30T02:55:21;2.53;;;2.10;;
10831;SDS011;5469;48.574;8.768;2023-04-30T02:57:55;3.77;;;1.50;;
10831;SDS011;5469;48.574;8.768;2023-04-30T03:00:28;3.23;;;1.90;;
10831;SDS011;5469;48.574;8.768;2023-04-30T03:03:03;1.93;;;1.63;;
10831;SDS011;5469;48.574;8.768;2023-04-30T03:05:36;1.70;;;1.30;;
10831;SDS011;5469;48.574;8.768;2023-04-30T03:08:09;3.70;;;2.37;;
10831;SDS011;5469;48.574;8.768;2023-04-30T03:10:43;2.43;;;1.73;;
10831;SDS011;5469;48.574;8.768;2023-04-30T03:13:16;2.13;;;1.50;;
10831;SDS011;5469;48.574;8.768;2023-04-30T03:15:55;3.20;;;1.90;;
10831;SDS011;5469;48.574;8.768;2023-04-30T03:18:30;4.20;;;1.97;;
10831;SDS011;5469;48.574;8.768;2023-04-30T03:21:04;2.70;;;1.60;;
10831;SDS011;5469;48.574;8.768;2023-04-30T03:23:37;2.53;;;1.97;;
10831;SDS011;5469;48.574;8.768;2023-04-30T03:26:11;2.03;;;1.80;;
10831;SDS011;5469;48.574;8.768;2023-04-30T03:28:44;1.43;;;1.30;;
10831;SDS011;5469;48.574;8.768;2023-04-30T03:31:18;2.73;;;1.77;;
10831;SDS011;5469;48.574;8.768;2023-04-30T03:33:52;2.20;;;2.00;;
10831;SDS011;5469;48.574;8.768;2023-04-30T03:36:26;3.07;;;1.97;;
10831;SDS011;5469;48.574;8.768;2023-04-30T03:38:59;2.87;;;1.83;;
10831;SDS011;5469;48.574;8.768;2023-04-30T03:41:33;1.67;;;1.57;;
10831;SDS011;5469;48.574;8.768;2023-04-30T03:44:06;1.97;;;1.77;;
10831;SDS011;5469;48.574;8.768;2023-04-30T03:46:46;2.13;;;1.93;;
10831;SDS011;5469;48.574;8.768;2023-04-30T03:49:20;2.70;;;2.20;;
10831;SDS011;5469;48.574;8.768;2023-04-30T03:51:54;2.87;;;1.80;;
10831;SDS011;5469;48.574;8.768;2023-04-30T03:54:27;2.23;;;2.03;;
10831;SDS011;5469;48.574;8.768;2023-04-30T03:57:00;1.77;;;1.47;;
10831;SDS011;5469;48.574;8.768;2023-04-30T03:59:34;2.47;;;1.87;;
10831;SDS011;5469;48.574;8.768;2023-04-30T04:02:07;2.70;;;2.30;;
10831;SDS011;5469;48.574;8.768;2023-04-30T04:04:42;3.53;;;2.60;;
10831;SDS011;5469;48.574;8.768;2023-04-30T04:07:16;2.47;;;2.17;;
10831;SDS011;5469;48.574;8.768;2023-04-30T04:09:49;4.87;;;2.23;;
10831;SDS011;5469;48.574;8.768;2023-04-30T04:12:23;3.53;;;2.13;;
10831;SDS011;5469;48.574;8.768;2023-04-30T04:14:56;2.93;;;2.37;;
10831;SDS011;5469;48.574;8.768;2023-04-30T04:17:29;2.93;;;1.97;;
10831;SDS011;5469;48.574;8.768;2023-04-30T04:20:05;3.83;;;2.20;;
10831;SDS011;5469;48.574;8.768;2023-04-30T04:22:39;2.83;;;2.10;;
10831;SDS011;5469;48.574;8.768;2023-04-30T04:25:12;3.23;;;1.80;;
10831;SDS011;5469;48.574;8.768;2023-04-30T04:27:46;2.20;;;1.50;;
10831;SDS011;5469;48.574;8.768;2023-04-30T04:30:20;3.07;;;2.47;;
10831;SDS011;5469;48.574;8.768;2023-04-30T04:32:53;2.67;;;2.00;;
10831;SDS011;5469;48.574;8.768;2023-04-30T04:35:27;3.53;;;2.07;;
10831;SDS011;5469;48.574;8.768;2023-04-30T04:38:01;5.03;;;2.30;;
10831;SDS011;5469;48.574;8.768;2023-04-30T04:40:35;2.47;;;2.07;;
10831;SDS011;5469;48.574;8.768;2023-04-30T04:43:08;4.33;;;2.60;;
10831;SDS011;5469;48.574;8.768;2023-04-30T04:45:43;4.07;;;2.50;;
10831;SDS011;5469;48.574;8.768;2023-04-30T04:48:16;4.37;;;3.00;;
10831;SDS011;5469;48.574;8.768;2023-04-30T04:50:51;5.10;;;2.70;;
10831;SDS011;5469;48.574;8.768;2023-04-30T04:53:24;3.40;;;2.60;;
10831;SDS011;5469;48.574;8.768;2023-04-30T04:55:58;2.77;;;2.07;;
10831;SDS011;5469;48.574;8.768;2023-04-30T04:58:31;2.77;;;2.27;;
10831;SDS011;5469;48.574;8.768;2023-04-30T05:01:05;2.20;;;2.00;;
10831;SDS011;5469;48.574;8.768;2023-04-30T05:03:38;3.87;;;2.47;;
10831;SDS011;5469;48.574;8.768;2023-04-30T05:06:13;3.17;;;2.30;;
10831;SDS011;5469;48.574;8.768;2023-04-30T05:08:47;3.73;;;2.07;;
10831;SDS011;5469;48.574;8.768;2023-04-30T05:11:20;3.33;;;2.23;;
10831;SDS011;5469;48.574;8.768;2023-04-30T05:13:54;3.70;;;2.53;;
10831;SDS011;5469;48.574;8.768;2023-04-30T05:16:28;2.93;;;2.10;;
10831;SDS011;5469;48.574;8.768;2023-04-30T05:19:02;4.90;;;2.70;;
10831;SDS011;5469;48.574;8.768;2023-04-30T05:21:37;4.70;;;2.60;;
10831;SDS011;5469;48.574;8.768;2023-04-30T05:24:11;3.07;;;2.17;;
10831;SDS011;5469;48.574;8.768;2023-04-30T05:26:44;4.47;;;2.20;;
10831;SDS011;5469;48.574;8.768;2023-04-30T05:29:17;2.33;;;2.03;;
10831;SDS011;5469;48.574;8.768;2023-04-30T05:31:51;2.83;;;2.07;;
10831;SDS011;5469;48.574;8.768;2023-04-30T05:34:25;3.73;;;2.67;;
10831;SDS011;5469;48.574;8.768;2023-04-30T05:36:59;1.90;;;1.77;;
10831;SDS011;5469;48.574;8.768;2023-04-30T05:39:33;3.10;;;2.23;;
10831;SDS011;5469;48.574;8.768;2023-04-30T05:42:06;2.80;;;2.30;;
10831;SDS011;5469;48.574;8.768;2023-04-30T05:44:40;3.27;;;2.30;;
10831;SDS011;5469;48.574;8.768;2023-04-30T05:47:13;3.10;;;2.03;;
10831;SDS011;5469;48.574;8.768;2023-04-30T05:49:47;2.40;;;2.13;;
10831;SDS011;5469;48.574;8.768;2023-04-30T05:52:22;4.43;;;2.23;;
10831;SDS011;5469;48.574;8.768;2023-04-30T05:54:55;4.00;;;2.27;;
10831;SDS011;5469;48.574;8.768;2023-04-30T05:57:28;4.77;;;2.20;;
10831;SDS011;5469;48.574;8.768;2023-04-30T06:00:02;4.87;;;2.37;;
10831;SDS011;5469;48.574;8.768;2023-04-30T06:02:37;2.50;;;2.20;;
10831;SDS011;5469;48.574;8.768;2023-04-30T06:05:10;5.90;;;2.70;;
10831;SDS011;5469;48.574;8.768;2023-04-30T06:07:45;3.33;;;2.70;;
10831;SDS011;5469;48.574;8.768;2023-04-30T06:10:19;3.90;;;2.90;;
10831;SDS011;5469;48.574;8.768;2023-04-30T06:12:52;3.90;;;2.47;;
10831;SDS011;5469;48.574;8.768;2023-04-30T06:15:26;3.40;;;2.30;;
10831;SDS011;5469;48.574;8.768;2023-04-30T06:17:59;5.37;;;2.53;;
10831;SDS011;5469;48.574;8.768;2023-04-30T06:20:32;3.83;;;2.90;;
10831;SDS011;5469;48.574;8.768;2023-04-30T06:23:07;2.30;;;2.13;;
10831;SDS011;5469;48.574;8.768;2023-04-30T06:25:41;3.10;;;2.60;;
10831;SDS011;5469;48.574;8.768;2023-04-30T06:28:14;3.63;;;2.07;;
10831;SDS011;5469;48.574;8.768;2023-04-30T06:30:48;2.60;;;2.40;;
10831;SDS011;5469;48.574;8.768;2023-04-30T06:33:21;2.50;;;2.30;;
10831;SDS011;5469;48.574;8.768;2023-04-30T06:35:55;5.03;;;2.97;;
10831;SDS011;5469;48.574;8.768;2023-04-30T06:38:30;2.33;;;1.90;;
10831;SDS011;5469;48.574;8.768;2023-04-30T06:41:03;2.73;;;2.00;;
10831;SDS011;5469;48.574;8.768;2023-04-30T06:43:36;4.90;;;3.00;;
10831;SDS011;5469;48.574;8.768;2023-04-30T06:46:10;2.60;;;2.20;;
10831;SDS011;5469;48.574;8.768;2023-04-30T06:48:43;3.57;;;2.63;;
10831;SDS011;5469;48.574;8.768;2023-04-30T06:51:16;4.20;;;2.27;;
10831;SDS011;5469;48.574;8.768;2023-04-30T06:53:51;3.43;;;2.43;;
10831;SDS011;5469;48.574;8.768;2023-04-30T06:56:25;3.60;;;2.47;;
10831;SDS011;5469;48.574;8.768;2023-04-30T06:58:58;5.27;;;2.83;;
10831;SDS011;5469;48.574;8.768;2023-04-30T07:01:31;4.47;;;2.47;;
10831;SDS011;5469;48.574;8.768;2023-04-30T07:04:05;4.67;;;3.20;;
10831;SDS011;5469;48.574;8.768;2023-04-30T07:06:38;2.93;;;2.30;;
10831;SDS011;5469;48.574;8.768;2023-04-30T07:09:13;3.07;;;2.47;;
10831;SDS011;5469;48.574;8.768;2023-04-30T07:11:47;3.70;;;2.63;;
10831;SDS011;5469;48.574;8.768;2023-04-30T07:14:21;4.50;;;2.37;;
10831;SDS011;5469;48.574;8.768;2023-04-30T07:16:55;3.70;;;2.73;;
10831;SDS011;5469;48.574;8.768;2023-04-30T07:19:28;4.73;;;2.23;;
10831;SDS011;5469;48.574;8.768;2023-04-30T07:22:01;4.33;;;2.50;;
10831;SDS011;5469;48.574;8.768;2023-04-30T07:24:36;2.77;;;2.23;;
10831;SDS011;5469;48.574;8.768;2023-04-30T07:27:10;4.43;;;2.60;;
10831;SDS011;5469;48.574;8.768;2023-04-30T07:29:43;2.57;;;2.23;;
10831;SDS011;5469;48.574;8.768;2023-04-30T07:32:16;4.67;;;2.87;;
10831;SDS011;5469;48.574;8.768;2023-04-30T07:34:50;4.80;;;2.57;;
10831;SDS011;5469;48.574;8.768;2023-04-30T07:37:24;3.37;;;2.57;;
10831;SDS011;5469;48.574;8.768;2023-04-30T07:39:59;3.67;;;2.57;;
10831;SDS011;5469;48.574;8.768;2023-04-30T07:42:32;3.53;;;2.37;;
10831;SDS011;5469;48.574;8.768;2023-04-30T07:45:06;3.90;;;2.50;;
10831;SDS011;5469;48.574;8.768;2023-04-30T07:47:40;2.57;;;2.03;;
10831;SDS011;5469;48.574;8.768;2023-04-30T07:50:13;2.73;;;2.13;;
10831;SDS011;5469;48.574;8.768;2023-04-30T07:52:47;2.87;;;2.13;;
10831;SDS011;5469;48.574;8.768;2023-04-30T07:55:22;4.03;;;2.30;;
10831;SDS011;5469;48.574;8.768;2023-04-30T07:57:55;2.87;;;2.03;;
10831;SDS011;5469;48.574;8.768;2023-04-30T08:00:29;3.47;;;2.47;;
10831;SDS011;5469;48.574;8.768;2023-04-30T08:03:02;3.23;;;2.03;;
10831;SDS011;5469;48.574;8.768;2023-04-30T08:05:36;3.77;;;2.40;;
10831;SDS011;5469;48.574;8.768;2023-04-30T08:08:09;3.67;;;2.37;;
10831;SDS011;5469;48.574;8.768;2023-04-30T08:10:44;3.17;;;2.27;;
10831;SDS011;5469;48.574;8.768;2023-04-30T08:13:17;3.13;;;2.53;;
10831;SDS011;5469;48.574;8.768;2023-04-30T08:15:51;3.30;;;1.73;;
10831;SDS011;5469;48.574;8.768;2023-04-30T08:18:24;2.47;;;1.87;;
10831;SDS011;5469;48.574;8.768;2023-04-30T08:20:58;3.17;;;2.43;;
10831;SDS011;5469;48.574;8.768;2023-04-30T08:23:32;3.53;;;1.93;;
10831;SDS011;5469;48.574;8.768;2023-04-30T08:26:07;2.40;;;2.20;;
10831;SDS011;5469;48.574;8.768;2023-04-30T08:28:40;2.77;;;2.07;;
10831;SDS011;5469;48.574;8.768;2023-04-30T08:31:13;4.03;;;2.40;;
10831;SDS011;5469;48.574;8.768;2023-04-30T08:33:47;2.53;;;1.90;;
10831;SDS011;5469;48.574;8.768;2023-04-30T08:36:20;2.90;;;2.50;;
10831;SDS011;5469;48.574;8.768;2023-04-30T08:38:54;1.70;;;1.60;;
10831;SDS011;5469;48.574;8.768;2023-04-30T08:41:31;2.33;;;2.13;;
10831;SDS011;5469;48.574;8.768;2023-04-30T08:44:05;2.73;;;2.07;;
10831;SDS011;5469;48.574;8.768;2023-04-30T08:46:41;2.60;;;1.80;;
10831;SDS011;5469;48.574;8.768;2023-04-30T08:49:17;2.40;;;1.73;;
10831;SDS011;5469;48.574;8.768;2023-04-30T08:51:50;1.90;;;1.70;;
10831;SDS011;5469;48.574;8.768;2023-04-30T08:54:25;1.70;;;1.60;;
10831;SDS011;5469;48.574;8.768;2023-04-30T08:57:01;1.83;;;1.70;;
10831;SDS011;5469;48.574;8.768;2023-04-30T08:59:35;1.60;;;1.50;;
10831;SDS011;5469;48.574;8.768;2023-04-30T09:02:09;3.20;;;2.07;;
10831;SDS011;5469;48.574;8.768;2023-04-30T09:04:42;1.33;;;1.23;;
10831;SDS011;5469;48.574;8.768;2023-04-30T09:07:17;1.97;;;1.50;;
10831;SDS011;5469;48.574;8.768;2023-04-30T09:09:51;1.97;;;1.43;;
10831;SDS011;5469;48.574;8.768;2023-04-30T09:12:26;1.80;;;1.40;;
10831;SDS011;5469;48.574;8.768;2023-04-30T09:15:15;1.40;;;1.30;;
10831;SDS011;5469;48.574;8.768;2023-04-30T09:17:49;1.53;;;1.43;;
10831;SDS011;5469;48.574;8.768;2023-04-30T09:20:22;1.83;;;1.73;;
10831;SDS011;5469;48.574;8.768;2023-04-30T09:23:03;1.90;;;1.57;;
10831;SDS011;5469;48.574;8.768;2023-04-30T09:25:38;2.53;;;1.70;;
10831;SDS011;5469;48.574;8.768;2023-04-30T09:28:14;1.57;;;1.47;;
10831;SDS011;5469;48.574;8.768;2023-04-30T09:30:48;1.20;;;1.10;;
10831;SDS011;5469;48.574;8.768;2023-04-30T09:33:21;1.50;;;1.27;;
10831;SDS011;5469;48.574;8.768;2023-04-30T09:35:55;1.40;;;1.30;;
10831;SDS011;5469;48.574;8.768;2023-04-30T09:38:30;1.90;;;1.67;;
10831;SDS011;5469;48.574;8.768;2023-04-30T09:41:04;1.43;;;1.27;;
10831;SDS011;5469;48.574;8.768;2023-04-30T09:43:44;4.80;;;3.63;;
10831;SDS011;5469;48.574;8.768;2023-04-30T09:46:18;7.93;;;5.77;;
10831;SDS011;5469;48.574;8.768;2023-04-30T09:48:58;9.73;;;6.00;;
10831;SDS011;5469;48.574;8.768;2023-04-30T09:51:32;10.07;;;4.37;;
10831;SDS011;5469;48.574;8.768;2023-04-30T09:54:06;5.73;;;4.27;;
10831;SDS011;5469;48.574;8.768;2023-04-30T09:56:42;5.93;;;3.50;;
10831;SDS011;5469;48.574;8.768;2023-04-30T09:59:17;2.83;;;2.60;;
10831;SDS011;5469;48.574;8.768;2023-04-30T10:01:53;4.10;;;3.03;;
10831;SDS011;5469;48.574;8.768;2023-04-30T10:04:29;3.40;;;2.93;;
10831;SDS011;5469;48.574;8.768;2023-04-30T10:07:08;2.67;;;2.47;;
10831;SDS011;5469;48.574;8.768;2023-04-30T10:09:47;6.13;;;4.30;;
10831;SDS011;5469;48.574;8.768;2023-04-30T10:12:23;8.43;;;5.60;;
10831;SDS011;5469;48.574;8.768;2023-04-30T10:15:05;12.53;;;7.63;;
10831;SDS011;5469;48.574;8.768;2023-04-30T10:17:43;9.30;;;6.33;;
10831;SDS011;5469;48.574;8.768;2023-04-30T10:20:23;10.63;;;6.23;;
10831;SDS011;5469;48.574;8.768;2023-04-30T10:22:59;9.23;;;5.03;;
10831;SDS011;5469;48.574;8.768;2023-04-30T10:25:33;8.53;;;4.53;;
10831;SDS011;5469;48.574;8.768;2023-04-30T10:28:07;6.97;;;4.17;;
10831;SDS011;5469;48.574;8.768;2023-04-30T10:30:42;5.90;;;3.40;;
10831;SDS011;5469;48.574;8.768;2023-04-30T10:33:17;6.40;;;4.23;;
10831;SDS011;5469;48.574;8.768;2023-04-30T10:35:56;3.47;;;2.93;;
10831;SDS011;5469;48.574;8.768;2023-04-30T10:38:31;3.37;;;2.43;;
10831;SDS011;5469;48.574;8.768;2023-04-30T10:41:06;3.83;;;2.90;;
10831;SDS011;5469;48.574;8.768;2023-04-30T10:43:40;3.43;;;2.77;;
10831;SDS011;5469;48.574;8.768;2023-04-30T10:46:22;5.23;;;2.70;;
10831;SDS011;5469;48.574;8.768;2023-04-30T10:48:56;2.63;;;2.37;;
10831;SDS011;5469;48.574;8.768;2023-04-30T10:54:25;5.17;;;3.70;;
10831;SDS011;5469;48.574;8.768;2023-04-30T10:57:09;4.60;;;3.70;;
10831;SDS011;5469;48.574;8.768;2023-04-30T10:59:50;7.27;;;4.53;;
10831;SDS011;5469;48.574;8.768;2023-04-30T11:02:27;5.97;;;4.67;;
10831;SDS011;5469;48.574;8.768;2023-04-30T11:05:11;6.70;;;4.57;;
10831;SDS011;5469;48.574;8.768;2023-04-30T11:08:05;7.27;;;4.10;;
10831;SDS011;5469;48.574;8.768;2023-04-30T11:10:55;6.30;;;3.97;;
10831;SDS011;5469;48.574;8.768;2023-04-30T11:13:40;3.70;;;3.40;;
10831;SDS011;5469;48.574;8.768;2023-04-30T11:16:16;2.47;;;2.23;;
10831;SDS011;5469;48.574;8.768;2023-04-30T11:18:52;4.77;;;2.60;;
10831;SDS011;5469;48.574;8.768;2023-04-30T11:21:25;2.90;;;2.00;;
10831;SDS011;5469;48.574;8.768;2023-04-30T11:24:02;2.20;;;2.00;;
10831;SDS011;5469;48.574;8.768;2023-04-30T11:29:35;1.80;;;1.70;;
10831;SDS011;5469;48.574;8.768;2023-04-30T11:32:10;2.17;;;1.50;;
10831;SDS011;5469;48.574;8.768;2023-04-30T11:34:46;1.40;;;1.30;;
10831;SDS011;5469;48.574;8.768;2023-04-30T11:37:24;1.73;;;1.57;;
10831;SDS011;5469;48.574;8.768;2023-04-30T11:40:04;1.67;;;1.57;;
10831;SDS011;5469;48.574;8.768;2023-04-30T11:42:39;1.60;;;1.50;;
10831;SDS011;5469;48.574;8.768;2023-04-30T11:45:15;2.63;;;1.37;;
10831;SDS011;5469;48.574;8.768;2023-04-30T11:47:52;2.03;;;1.40;;
10831;SDS011;5469;48.574;8.768;2023-04-30T11:50:31;1.30;;;1.20;;
10831;SDS011;5469;48.574;8.768;2023-04-30T11:53:05;1.10;;;1.00;;
10831;SDS011;5469;48.574;8.768;2023-04-30T11:55:41;1.23;;;1.13;;
10831;SDS011;5469;48.574;8.768;2023-04-30T11:58:15;2.10;;;1.40;;
10831;SDS011;5469;48.574;8.768;2023-04-30T12:00:49;1.10;;;1.10;;
10831;SDS011;5469;48.574;8.768;2023-04-30T12:03:24;1.97;;;1.20;;
10831;SDS011;5469;48.574;8.768;2023-04-30T12:05:59;1.50;;;1.30;;
10831;SDS011;5469;48.574;8.768;2023-04-30T12:08:33;1.83;;;1.33;;
10831;SDS011;5469;48.574;8.768;2023-04-30T12:11:17;1.80;;;1.40;;
10831;SDS011;5469;48.574;8.768;2023-04-30T12:13:52;1.40;;;1.30;;
10831;SDS011;5469;48.574;8.768;2023-04-30T12:16:27;1.50;;;1.40;;
10831;SDS011;5469;48.574;8.768;2023-04-30T12:19:10;1.17;;;1.00;;
10831;SDS011;5469;48.574;8.768;2023-04-30T12:21:46;1.30;;;1.20;;
10831;SDS011;5469;48.574;8.768;2023-04-30T12:24:20;1.20;;;1.07;;
10831;SDS011;5469;48.574;8.768;2023-04-30T12:26:54;1.40;;;1.30;;
10831;SDS011;5469;48.574;8.768;2023-04-30T12:29:28;1.97;;;1.30;;
10831;SDS011;5469;48.574;8.768;2023-04-30T12:32:02;0.97;;;0.97;;
10831;SDS011;5469;48.574;8.768;2023-04-30T12:34:37;1.30;;;1.20;;
10831;SDS011;5469;48.574;8.768;2023-04-30T12:37:13;1.30;;;1.20;;
10831;SDS011;5469;48.574;8.768;2023-04-30T12:39:47;0.97;;;0.90;;
10831;SDS011;5469;48.574;8.768;2023-04-30T12:42:21;1.40;;;1.30;;
10831;SDS011;5469;48.574;8.768;2023-04-30T12:44:56;1.40;;;1.20;;
10831;SDS011;5469;48.574;8.768;2023-04-30T12:47:30;1.43;;;1.13;;
10831;SDS011;5469;48.574;8.768;2023-04-30T12:50:05;1.00;;;1.00;;
10831;SDS011;5469;48.574;8.768;2023-04-30T12:52:42;0.80;;;0.80;;
10831;SDS011;5469;48.574;8.768;2023-04-30T12:55:16;1.40;;;1.30;;
10831;SDS011;5469;48.574;8.768;2023-04-30T13:00:48;2.00;;;1.40;;
10831;SDS011;5469;48.574;8.768;2023-04-30T13:03:22;1.37;;;1.20;;
10831;SDS011;5469;48.574;8.768;2023-04-30T13:05:55;1.23;;;0.90;;
10831;SDS011;5469;48.574;8.768;2023-04-30T13:08:30;1.20;;;1.10;;
10831;SDS011;5469;48.574;8.768;2023-04-30T13:11:04;1.43;;;1.07;;
10831;SDS011;5469;48.574;8.768;2023-04-30T13:13:37;3.07;;;1.27;;
10831;SDS011;5469;48.574;8.768;2023-04-30T13:16:11;1.37;;;1.23;;
10831;SDS011;5469;48.574;8.768;2023-04-30T13:18:45;2.00;;;1.00;;
10831;SDS011;5469;48.574;8.768;2023-04-30T13:21:18;1.50;;;1.00;;
10831;SDS011;5469;48.574;8.768;2023-04-30T13:23:53;1.30;;;1.10;;
10831;SDS011;5469;48.574;8.768;2023-04-30T13:26:27;0.90;;;0.90;;
10831;SDS011;5469;48.574;8.768;2023-04-30T13:29:00;1.10;;;1.00;;
10831;SDS011;5469;48.574;8.768;2023-04-30T13:31:35;1.57;;;1.10;;
10831;SDS011;5469;48.574;8.768;2023-04-30T13:34:08;1.00;;;0.90;;
10831;SDS011;5469;48.574;8.768;2023-04-30T13:36:41;1.40;;;1.13;;
10831;SDS011;5469;48.574;8.768;2023-04-30T13:39:18;1.47;;;1.00;;
10831;SDS011;5469;48.574;8.768;2023-04-30T13:41:52;1.77;;;1.33;;
10831;SDS011;5469;48.574;8.768;2023-04-30T13:44:25;1.40;;;1.30;;
10831;SDS011;5469;48.574;8.768;2023-04-30T13:46:59;1.83;;;1.17;;
10831;SDS011;5469;48.574;8.768;2023-04-30T13:49:32;1.47;;;1.00;;
10831;SDS011;5469;48.574;8.768;2023-04-30T13:52:07;1.30;;;1.20;;
10831;SDS011;5469;48.574;8.768;2023-04-30T13:54:42;1.03;;;0.93;;
10831;SDS011;5469;48.574;8.768;2023-04-30T13:57:15;1.10;;;1.00;;
10831;SDS011;5469;48.574;8.768;2023-04-30T13:59:49;2.20;;;1.47;;
10831;SDS011;5469;48.574;8.768;2023-04-30T14:02:22;1.70;;;1.17;;
10831;SDS011;5469;48.574;8.768;2023-04-30T14:04:56;2.23;;;1.00;;
10831;SDS011;5469;48.574;8.768;2023-04-30T14:07:30;0.63;;;0.63;;
10831;SDS011;5469;48.574;8.768;2023-04-30T14:10:06;1.20;;;1.10;;
10831;SDS011;5469;48.574;8.768;2023-04-30T14:12:40;1.17;;;1.07;;
10831;SDS011;5469;48.574;8.768;2023-04-30T14:15:13;1.37;;;1.27;;
10831;SDS011;5469;48.574;8.768;2023-04-30T14:17:47;1.07;;;0.97;;
10831;SDS011;5469;48.574;8.768;2023-04-30T14:20:21;1.40;;;1.30;;
10831;SDS011;5469;48.574;8.768;2023-04-30T14:22:54;1.37;;;1.27;;
10831;SDS011;5469;48.574;8.768;2023-04-30T14:25:29;1.60;;;1.50;;
10831;SDS011;5469;48.574;8.768;2023-04-30T14:28:02;1.37;;;1.27;;
10831;SDS011;5469;48.574;8.768;2023-04-30T14:30:36;1.00;;;0.93;;
10831;SDS011;5469;48.574;8.768;2023-04-30T14:33:09;0.90;;;0.90;;
10831;SDS011;5469;48.574;8.768;2023-04-30T14:35:43;1.27;;;1.17;;
10831;SDS011;5469;48.574;8.768;2023-04-30T14:38:18;1.20;;;1.10;;
10831;SDS011;5469;48.574;8.768;2023-04-30T14:40:52;0.90;;;0.90;;
10831;SDS011;5469;48.574;8.768;2023-04-30T14:43:26;1.63;;;1.10;;
10831;SDS011;5469;48.574;8.768;2023-04-30T14:45:59;1.30;;;1.20;;
10831;SDS011;5469;48.574;8.768;2023-04-30T14:48:34;1.23;;;1.13;;
10831;SDS011;5469;48.574;8.768;2023-04-30T14:51:08;1.13;;;1.00;;
10831;SDS011;5469;48.574;8.768;2023-04-30T14:53:41;1.60;;;1.17;;
10831;SDS011;5469;48.574;8.768;2023-04-30T14:56:16;1.30;;;1.07;;
10831;SDS011;5469;48.574;8.768;2023-04-30T14:58:52;1.50;;;1.30;;
10831;SDS011;5469;48.574;8.768;2023-04-30T15:01:27;1.27;;;1.00;;
10831;SDS011;5469;48.574;8.768;2023-04-30T15:04:02;1.23;;;1.13;;
10831;SDS011;5469;48.574;8.768;2023-04-30T15:06:38;0.97;;;0.87;;
10831;SDS011;5469;48.574;8.768;2023-04-30T15:09:14;2.97;;;1.20;;
10831;SDS011;5469;48.574;8.768;2023-04-30T15:11:50;1.57;;;0.77;;
10831;SDS011;5469;48.574;8.768;2023-04-30T15:14:27;1.33;;;1.23;;
10831;SDS011;5469;48.574;8.768;2023-04-30T15:17:02;1.27;;;1.17;;
10831;SDS011;5469;48.574;8.768;2023-04-30T15:19:38;0.90;;;0.80;;
10831;SDS011;5469;48.574;8.768;2023-04-30T15:22:14;1.23;;;1.03;;
10831;SDS011;5469;48.574;8.768;2023-04-30T15:24:50;1.03;;;1.00;;
10831;SDS011;5469;48.574;8.768;2023-04-30T15:27:27;2.10;;;1.30;;
10831;SDS011;5469;48.574;8.768;2023-04-30T15:30:03;1.13;;;1.10;;
10831;SDS011;5469;48.574;8.768;2023-04-30T15:32:41;1.10;;;1.00;;
10831;SDS011;5469;48.574;8.768;2023-04-30T15:35:17;0.90;;;0.90;;
10831;SDS011;5469;48.574;8.768;2023-04-30T15:37:52;0.93;;;0.93;;
10831;SDS011;5469;48.574;8.768;2023-04-30T15:40:27;1.00;;;1.00;;
10831;SDS011;5469;48.574;8.768;2023-04-30T15:43:05;1.05;;;1.02;;
10831;SDS011;5469;48.574;8.768;2023-04-30T15:45:41;1.48;;;1.38;;
10831;SDS011;5469;48.574;8.768;2023-04-30T15:48:19;1.23;;;1.03;;
10831;SDS011;5469;48.574;8.768;2023-04-30T15:50:54;1.10;;;0.97;;
10831;SDS011;5469;48.574;8.768;2023-04-30T15:53:29;2.83;;;1.30;;
10831;SDS011;5469;48.574;8.768;2023-04-30T15:56:04;1.10;;;1.03;;